createdAt,value
2018-09-10T00:00:22.089Z,23.13
2018-09-10T00:00:54.214Z,23.14
2018-09-10T00:01:26.351Z,23.14
2018-09-10T00:01:58.434Z,23.15
2018-09-10T00:02:30.550Z,23.12
2018-09-10T00:03:02.662Z,23.13
2018-09-10T00:03:35.016Z,23.12
2018-09-10T00:04:07.238Z,23.13
2018-09-10T00:04:39.703Z,23.11
2018-09-10T00:05:11.857Z,23.09
2018-09-10T00:05:44.039Z,23.08
2018-09-10T00:06:16.134Z,23.10
2018-09-10T00:06:48.249Z,23.11
2018-09-10T00:07:20.471Z,23.10
2018-09-10T00:07:52.566Z,23.09
2018-09-10T00:08:24.782Z,23.10
2018-09-10T00:08:56.931Z,23.09
2018-09-10T00:09:29.049Z,23.08
2018-09-10T00:10:01.240Z,23.07
2018-09-10T00:10:33.336Z,23.07
2018-09-10T00:11:05.457Z,23.07
2018-09-10T00:11:37.569Z,23.07
2018-09-10T00:12:09.797Z,23.08
2018-09-10T00:12:41.950Z,23.07
2018-09-10T00:13:14.174Z,23.09
2018-09-10T00:13:46.257Z,23.09
2018-09-10T00:14:18.470Z,23.09
2018-09-10T00:14:50.711Z,23.08
2018-09-10T00:15:22.873Z,23.07
2018-09-10T00:15:55.049Z,23.07
2018-09-10T00:16:27.207Z,23.07
2018-09-10T00:16:59.321Z,23.08
2018-09-10T00:17:31.476Z,23.08
2018-09-10T00:18:03.684Z,23.09
2018-09-10T00:18:35.827Z,23.09
2018-09-10T00:19:07.902Z,23.10
2018-09-10T00:19:40.031Z,23.09
2018-09-10T00:20:12.125Z,23.10
2018-09-10T00:20:44.256Z,23.10
2018-09-10T00:21:16.359Z,23.10
2018-09-10T00:21:48.457Z,23.09
2018-09-10T00:22:20.710Z,23.09
2018-09-10T00:22:52.934Z,23.08
2018-09-10T00:23:25.062Z,23.07
2018-09-10T00:23:57.213Z,23.07
2018-09-10T00:24:29.338Z,23.07
2018-09-10T00:25:01.482Z,23.07
2018-09-10T00:25:34.012Z,23.05
2018-09-10T00:26:06.404Z,23.06
2018-09-10T00:26:38.831Z,23.05
2018-09-10T00:27:11.306Z,23.05
2018-09-10T00:27:43.545Z,23.07
2018-09-10T00:28:15.681Z,23.05
2018-09-10T00:28:47.956Z,23.05
2018-09-10T00:29:20.061Z,23.06
2018-09-10T00:29:52.164Z,23.05
2018-09-10T00:30:24.311Z,23.05
2018-09-10T00:30:56.440Z,23.04
2018-09-10T00:31:28.724Z,23.04
2018-09-10T00:32:00.853Z,23.04
2018-09-10T00:32:33.014Z,23.06
2018-09-10T00:33:05.266Z,23.06
2018-09-10T00:33:37.434Z,23.05
2018-09-10T00:34:09.562Z,23.05
2018-09-10T00:34:41.739Z,23.05
2018-09-10T00:35:13.858Z,23.05
2018-09-10T00:35:45.985Z,23.05
2018-09-10T00:36:18.143Z,23.05
2018-09-10T00:36:50.462Z,23.05
2018-09-10T00:37:22.739Z,23.05
2018-09-10T00:37:55.025Z,23.05
2018-09-10T00:38:27.126Z,23.05
2018-09-10T00:38:59.294Z,23.06
2018-09-10T00:39:31.405Z,23.04
2018-09-10T00:40:03.596Z,23.03
2018-09-10T00:40:35.714Z,23.03
2018-09-10T00:41:07.797Z,23.02
2018-09-10T00:41:39.947Z,23.03
2018-09-10T00:42:12.221Z,23.03
2018-09-10T00:42:44.433Z,23.03
2018-09-10T00:43:16.579Z,23.03
2018-09-10T00:43:48.739Z,23.02
2018-09-10T00:44:20.854Z,23.04
2018-09-10T00:44:53.008Z,23.03
2018-09-10T00:45:25.139Z,23.04
2018-09-10T00:45:57.226Z,23.04
2018-09-10T00:46:29.563Z,23.03
2018-09-10T00:47:01.742Z,23.04
2018-09-10T00:47:33.893Z,23.04
2018-09-10T00:48:06.118Z,23.05
2018-09-10T00:48:38.305Z,23.05
2018-09-10T00:49:10.379Z,23.06
2018-09-10T00:49:42.482Z,23.05
2018-09-10T00:50:14.733Z,23.07
2018-09-10T00:50:46.870Z,23.06
2018-09-10T00:51:18.965Z,23.07
2018-09-10T00:51:51.203Z,23.06
2018-09-10T00:52:23.460Z,23.06
2018-09-10T00:52:55.657Z,23.06
2018-09-10T00:53:28.138Z,23.07
2018-09-10T00:54:00.300Z,23.07
2018-09-10T00:54:32.718Z,23.07
2018-09-10T00:55:04.842Z,23.09
2018-09-10T00:55:36.975Z,23.08
2018-09-10T00:56:09.249Z,23.08
2018-09-10T00:56:41.503Z,23.07
2018-09-10T00:57:13.762Z,23.05
2018-09-10T00:57:46.012Z,23.06
2018-09-10T00:58:18.139Z,23.07
2018-09-10T00:58:50.528Z,23.07
2018-09-10T00:59:22.621Z,23.05
2018-09-10T00:59:54.874Z,23.07
2018-09-10T01:00:26.969Z,23.06
2018-09-10T01:00:59.242Z,23.08
2018-09-10T01:01:31.332Z,23.06
2018-09-10T01:02:03.601Z,23.06
2018-09-10T01:02:35.709Z,23.07
2018-09-10T01:03:07.827Z,23.07
2018-09-10T01:03:39.949Z,23.06
2018-09-10T01:04:12.125Z,23.07
2018-09-10T01:04:44.536Z,23.06
2018-09-10T01:05:16.782Z,23.06
2018-09-10T01:05:48.935Z,23.03
2018-09-10T01:06:21.106Z,23.03
2018-09-10T01:06:53.225Z,23.05
2018-09-10T01:07:25.352Z,23.05
2018-09-10T01:07:57.456Z,23.04
2018-09-10T01:08:29.818Z,23.04
2018-09-10T01:09:01.941Z,23.04
2018-09-10T01:09:34.132Z,23.03
2018-09-10T01:10:06.281Z,23.04
2018-09-10T01:10:38.353Z,23.04
2018-09-10T01:11:10.487Z,23.06
2018-09-10T01:11:42.742Z,23.05
2018-09-10T01:12:14.856Z,23.06
2018-09-10T01:12:47.114Z,23.06
2018-09-10T01:13:19.210Z,23.04
2018-09-10T01:13:51.397Z,23.04
2018-09-10T01:14:23.680Z,23.06
2018-09-10T01:14:55.974Z,23.05
2018-09-10T01:15:28.103Z,23.06
2018-09-10T01:16:00.242Z,23.05
2018-09-10T01:16:32.335Z,23.04
2018-09-10T01:17:04.516Z,23.04
2018-09-10T01:17:36.672Z,23.04
2018-09-10T01:18:08.943Z,23.05
2018-09-10T01:18:41.183Z,23.07
2018-09-10T01:19:13.351Z,23.06
2018-09-10T01:19:45.595Z,23.04
2018-09-10T01:20:17.682Z,23.04
2018-09-10T01:20:50.004Z,23.03
2018-09-10T01:21:22.262Z,23.02
2018-09-10T01:21:54.453Z,23.03
2018-09-10T01:22:26.741Z,23.03
2018-09-10T01:22:59.031Z,23.03
2018-09-10T01:23:31.289Z,23.04
2018-09-10T01:24:03.504Z,23.04
2018-09-10T01:24:35.593Z,23.03
2018-09-10T01:25:07.822Z,23.03
2018-09-10T01:25:40.079Z,23.02
2018-09-10T01:26:12.401Z,23.01
2018-09-10T01:26:44.725Z,23.02
2018-09-10T01:27:16.821Z,23.02
2018-09-10T01:27:49.102Z,23.02
2018-09-10T01:28:21.241Z,23.03
2018-09-10T01:28:53.398Z,23.02
2018-09-10T01:29:25.502Z,23.02
2018-09-10T01:29:57.667Z,23.03
2018-09-10T01:30:29.817Z,23.01
2018-09-10T01:31:01.933Z,23.02
2018-09-10T01:31:34.034Z,23.01
2018-09-10T01:32:06.201Z,23.00
2018-09-10T01:32:38.321Z,23.01
2018-09-10T01:33:10.402Z,23.00
2018-09-10T01:33:42.545Z,23.00
2018-09-10T01:34:14.642Z,22.99
2018-09-10T01:34:47.033Z,22.99
2018-09-10T01:35:19.148Z,23.00
2018-09-10T01:35:51.302Z,23.00
2018-09-10T01:36:23.497Z,23.00
2018-09-10T01:36:55.605Z,23.00
2018-09-10T01:37:27.709Z,23.00
2018-09-10T01:38:00.096Z,22.99
2018-09-10T01:38:32.250Z,23.01
2018-09-10T01:39:04.410Z,23.02
2018-09-10T01:39:36.510Z,23.01
2018-09-10T01:40:08.743Z,23.01
2018-09-10T01:40:40.885Z,23.02
2018-09-10T01:41:13.005Z,23.02
2018-09-10T01:41:45.158Z,23.01
2018-09-10T01:42:17.286Z,23.00
2018-09-10T01:42:49.380Z,22.99
2018-09-10T01:43:21.530Z,22.98
2018-09-10T01:43:53.654Z,22.98
2018-09-10T01:44:25.796Z,22.99
2018-09-10T01:44:58.023Z,22.96
2018-09-10T01:45:30.195Z,22.96
2018-09-10T01:46:02.314Z,22.96
2018-09-10T01:46:34.424Z,22.96
2018-09-10T01:47:06.645Z,22.97
2018-09-10T01:47:38.718Z,22.98
2018-09-10T01:48:10.870Z,23.00
2018-09-10T01:48:42.949Z,22.98
2018-09-10T01:49:15.154Z,22.98
2018-09-10T01:49:47.258Z,22.97
2018-09-10T01:50:19.548Z,22.96
2018-09-10T01:50:51.741Z,22.97
2018-09-10T01:51:23.877Z,22.97
2018-09-10T01:51:55.971Z,22.99
2018-09-10T01:52:28.249Z,22.99
2018-09-10T01:53:00.544Z,22.99
2018-09-10T01:53:32.709Z,22.98
2018-09-10T01:54:04.833Z,22.98
2018-09-10T01:54:37.034Z,22.99
2018-09-10T01:55:09.120Z,23.00
2018-09-10T01:55:41.214Z,22.99
2018-09-10T01:56:13.460Z,23.00
2018-09-10T01:56:45.721Z,22.98
2018-09-10T01:57:17.945Z,22.99
2018-09-10T01:57:50.403Z,22.98
2018-09-10T01:58:22.560Z,22.99
2018-09-10T01:58:54.647Z,22.99
2018-09-10T01:59:26.762Z,22.98
2018-09-10T01:59:58.874Z,22.98
2018-09-10T02:00:30.990Z,22.98
2018-09-10T02:01:03.105Z,22.99
2018-09-10T02:01:35.284Z,23.00
2018-09-10T02:02:07.430Z,22.99
2018-09-10T02:02:39.663Z,22.97
2018-09-10T02:03:11.866Z,22.97
2018-09-10T02:03:44.079Z,22.97
2018-09-10T02:04:16.317Z,22.97
2018-09-10T02:04:48.444Z,22.96
2018-09-10T02:05:20.661Z,22.97
2018-09-10T02:05:52.827Z,22.96
2018-09-10T02:06:24.962Z,22.96
2018-09-10T02:06:57.103Z,22.95
2018-09-10T02:07:29.230Z,22.96
2018-09-10T02:08:01.326Z,22.94
2018-09-10T02:08:33.734Z,22.95
2018-09-10T02:09:06.047Z,22.96
2018-09-10T02:09:38.317Z,22.96
2018-09-10T02:10:10.520Z,22.95
2018-09-10T02:10:42.677Z,22.94
2018-09-10T02:11:14.790Z,22.94
2018-09-10T02:11:46.915Z,22.94
2018-09-10T02:12:19.029Z,22.94
2018-09-10T02:12:51.300Z,22.95
2018-09-10T02:13:23.506Z,22.95
2018-09-10T02:13:55.770Z,22.95
2018-09-10T02:14:27.877Z,22.94
2018-09-10T02:14:59.976Z,22.94
2018-09-10T02:15:32.119Z,22.93
2018-09-10T02:16:04.281Z,22.94
2018-09-10T02:16:36.394Z,22.94
2018-09-10T02:17:08.642Z,22.94
2018-09-10T02:17:41.134Z,22.93
2018-09-10T02:18:13.217Z,22.93
2018-09-10T02:18:45.386Z,22.93
2018-09-10T02:19:17.477Z,22.94
2018-09-10T02:19:49.743Z,22.93
2018-09-10T02:20:22.078Z,22.95
2018-09-10T02:20:54.248Z,22.94
2018-09-10T02:21:26.370Z,22.94
2018-09-10T02:21:58.567Z,22.92
2018-09-10T02:22:30.869Z,22.94
2018-09-10T02:23:03.247Z,22.94
2018-09-10T02:23:35.743Z,22.93
2018-09-10T02:24:07.847Z,22.93
2018-09-10T02:24:40.027Z,22.93
2018-09-10T02:25:12.103Z,22.92
2018-09-10T02:25:44.411Z,22.93
2018-09-10T02:26:16.519Z,22.95
2018-09-10T02:26:48.746Z,22.93
2018-09-10T02:27:20.902Z,22.94
2018-09-10T02:27:53.179Z,22.92
2018-09-10T02:28:25.276Z,22.94
2018-09-10T02:28:57.401Z,22.93
2018-09-10T02:29:29.562Z,22.93
2018-09-10T02:30:01.694Z,22.92
2018-09-10T02:30:33.865Z,22.90
2018-09-10T02:31:06.090Z,22.89
2018-09-10T02:31:38.263Z,22.90
2018-09-10T02:32:10.343Z,22.91
2018-09-10T02:32:42.501Z,22.92
2018-09-10T02:33:14.654Z,22.92
2018-09-10T02:33:46.801Z,22.92
2018-09-10T02:34:19.112Z,22.92
2018-09-10T02:34:51.250Z,22.92
2018-09-10T02:35:23.369Z,22.92
2018-09-10T02:35:55.846Z,22.91
2018-09-10T02:36:27.989Z,22.90
2018-09-10T02:37:00.113Z,22.92
2018-09-10T02:37:32.224Z,22.91
2018-09-10T02:38:04.357Z,22.90
2018-09-10T02:38:36.547Z,22.90
2018-09-10T02:39:08.601Z,22.92
2018-09-10T02:39:40.824Z,22.93
2018-09-10T02:40:13.029Z,22.94
2018-09-10T02:40:45.145Z,22.93
2018-09-10T02:41:17.310Z,22.92
2018-09-10T02:41:49.571Z,22.92
2018-09-10T02:42:21.681Z,22.94
2018-09-10T02:42:53.835Z,22.94
2018-09-10T02:43:25.993Z,22.93
2018-09-10T02:43:58.125Z,22.93
2018-09-10T02:44:30.273Z,22.93
2018-09-10T02:45:02.465Z,22.93
2018-09-10T02:45:34.689Z,22.95
2018-09-10T02:46:06.830Z,22.94
2018-09-10T02:46:39.018Z,22.94
2018-09-10T02:47:11.123Z,22.93
2018-09-10T02:47:43.258Z,22.94
2018-09-10T02:48:15.368Z,22.95
2018-09-10T02:48:47.457Z,22.95
2018-09-10T02:49:19.589Z,22.94
2018-09-10T02:49:51.745Z,22.93
2018-09-10T02:50:23.897Z,22.93
2018-09-10T02:50:56.043Z,22.93
2018-09-10T02:51:28.158Z,22.92
2018-09-10T02:52:00.507Z,22.92
2018-09-10T02:52:32.631Z,22.93
2018-09-10T02:53:04.886Z,22.95
2018-09-10T02:53:36.994Z,22.94
2018-09-10T02:54:09.261Z,22.95
2018-09-10T02:54:41.407Z,22.94
2018-09-10T02:55:13.621Z,22.95
2018-09-10T02:55:45.692Z,22.96
2018-09-10T02:56:17.791Z,22.96
2018-09-10T02:56:50.082Z,22.95
2018-09-10T02:57:22.174Z,22.95
2018-09-10T02:57:54.291Z,22.94
2018-09-10T02:58:26.426Z,22.93
2018-09-10T02:58:58.557Z,22.93
2018-09-10T02:59:30.705Z,22.93
2018-09-10T03:00:02.820Z,22.91
2018-09-10T03:00:34.951Z,22.93
2018-09-10T03:01:07.326Z,22.94
2018-09-10T03:01:39.427Z,22.94
2018-09-10T03:02:11.566Z,22.93
2018-09-10T03:02:43.675Z,22.94
2018-09-10T03:03:15.767Z,22.91
2018-09-10T03:03:47.862Z,22.93
2018-09-10T03:04:20.014Z,22.93
2018-09-10T03:04:52.284Z,22.94
2018-09-10T03:05:24.459Z,22.93
2018-09-10T03:05:56.549Z,22.92
2018-09-10T03:06:28.702Z,22.92
2018-09-10T03:07:00.887Z,22.92
2018-09-10T03:07:32.969Z,22.91
2018-09-10T03:08:05.193Z,22.92
2018-09-10T03:08:37.354Z,22.93
2018-09-10T03:09:09.466Z,22.93
2018-09-10T03:09:41.617Z,22.92
2018-09-10T03:10:13.738Z,22.92
2018-09-10T03:10:45.873Z,22.92
2018-09-10T03:11:17.995Z,22.93
2018-09-10T03:11:50.142Z,22.92
2018-09-10T03:12:22.426Z,22.93
2018-09-10T03:12:54.522Z,22.91
2018-09-10T03:13:26.609Z,22.92
2018-09-10T03:13:58.789Z,22.90
2018-09-10T03:14:30.906Z,22.90
2018-09-10T03:15:03.042Z,22.88
2018-09-10T03:15:35.190Z,22.89
2018-09-10T03:16:07.357Z,22.88
2018-09-10T03:16:39.590Z,22.88
2018-09-10T03:17:11.713Z,22.89
2018-09-10T03:17:43.885Z,22.91
2018-09-10T03:18:16.052Z,22.90
2018-09-10T03:18:48.185Z,22.92
2018-09-10T03:19:20.302Z,22.90
2018-09-10T03:19:52.436Z,22.89
2018-09-10T03:20:24.555Z,22.88
2018-09-10T03:20:56.786Z,22.87
2018-09-10T03:21:28.905Z,22.87
2018-09-10T03:22:01.036Z,22.85
2018-09-10T03:22:33.180Z,22.88
2018-09-10T03:23:05.406Z,22.89
2018-09-10T03:23:37.590Z,22.89
2018-09-10T03:24:09.752Z,22.89
2018-09-10T03:24:41.786Z,22.89
2018-09-10T03:25:13.926Z,22.89
2018-09-10T03:25:46.201Z,22.90
2018-09-10T03:26:18.296Z,22.89
2018-09-10T03:26:50.576Z,22.91
2018-09-10T03:27:22.681Z,22.91
2018-09-10T03:27:54.902Z,22.89
2018-09-10T03:28:27.073Z,22.88
2018-09-10T03:28:59.404Z,22.89
2018-09-10T03:29:31.561Z,22.89
2018-09-10T03:30:03.661Z,22.91
2018-09-10T03:30:35.755Z,22.89
2018-09-10T03:31:08.015Z,22.88
2018-09-10T03:31:40.146Z,22.87
2018-09-10T03:32:12.262Z,22.86
2018-09-10T03:32:44.368Z,22.88
2018-09-10T03:33:16.634Z,22.88
2018-09-10T03:33:48.723Z,22.88
2018-09-10T03:34:20.814Z,22.89
2018-09-10T03:34:52.915Z,22.91
2018-09-10T03:35:25.014Z,22.90
2018-09-10T03:35:57.136Z,22.90
2018-09-10T03:36:29.364Z,22.89
2018-09-10T03:37:01.494Z,22.87
2018-09-10T03:37:33.668Z,22.87
2018-09-10T03:38:05.760Z,22.87
2018-09-10T03:38:37.894Z,22.87
2018-09-10T03:39:10.068Z,22.87
2018-09-10T03:39:42.183Z,22.88
2018-09-10T03:40:14.261Z,22.88
2018-09-10T03:40:46.408Z,22.86
2018-09-10T03:41:18.523Z,22.86
2018-09-10T03:41:50.651Z,22.88
2018-09-10T03:42:22.778Z,22.87
2018-09-10T03:42:54.926Z,22.88
2018-09-10T03:43:27.110Z,22.87
2018-09-10T03:43:59.336Z,22.88
2018-09-10T03:44:31.500Z,22.86
2018-09-10T03:45:03.607Z,22.88
2018-09-10T03:45:35.773Z,22.87
2018-09-10T03:46:07.921Z,22.88
2018-09-10T03:46:40.033Z,22.87
2018-09-10T03:47:12.201Z,22.87
2018-09-10T03:47:44.328Z,22.88
2018-09-10T03:48:16.428Z,22.86
2018-09-10T03:48:48.538Z,22.87
2018-09-10T03:49:20.859Z,22.87
2018-09-10T03:49:52.951Z,22.87
2018-09-10T03:50:25.078Z,22.86
2018-09-10T03:50:57.335Z,22.87
2018-09-10T03:51:29.478Z,22.85
2018-09-10T03:52:01.628Z,22.86
2018-09-10T03:52:33.914Z,22.86
2018-09-10T03:53:05.981Z,22.85
2018-09-10T03:53:38.090Z,22.86
2018-09-10T03:54:10.453Z,22.85
2018-09-10T03:54:42.695Z,22.85
2018-09-10T03:55:14.816Z,22.85
2018-09-10T03:55:46.899Z,22.85
2018-09-10T03:56:18.999Z,22.85
2018-09-10T03:56:51.160Z,22.85
2018-09-10T03:57:23.331Z,22.85
2018-09-10T03:57:55.470Z,22.84
2018-09-10T03:58:27.591Z,22.87
2018-09-10T03:58:59.729Z,22.87
2018-09-10T03:59:31.985Z,22.87
2018-09-10T04:00:04.239Z,22.87
2018-09-10T04:00:36.334Z,22.87
2018-09-10T04:01:08.451Z,22.88
2018-09-10T04:01:40.645Z,22.89
2018-09-10T04:02:12.766Z,22.89
2018-09-10T04:02:44.953Z,22.91
2018-09-10T04:03:17.071Z,22.88
2018-09-10T04:03:49.223Z,22.88
2018-09-10T04:04:21.678Z,22.86
2018-09-10T04:04:53.762Z,22.85
2018-09-10T04:05:25.911Z,22.84
2018-09-10T04:05:58.002Z,22.86
2018-09-10T04:06:30.290Z,22.86
2018-09-10T04:07:02.367Z,22.85
2018-09-10T04:07:34.502Z,22.85
2018-09-10T04:08:06.585Z,22.85
2018-09-10T04:08:38.667Z,22.86
2018-09-10T04:09:10.788Z,22.84
2018-09-10T04:09:42.958Z,22.83
2018-09-10T04:10:15.063Z,22.83
2018-09-10T04:10:47.171Z,22.84
2018-09-10T04:11:19.272Z,22.84
2018-09-10T04:11:51.382Z,22.82
2018-09-10T04:12:23.469Z,22.82
2018-09-10T04:12:55.610Z,22.84
2018-09-10T04:13:27.829Z,22.85
2018-09-10T04:13:59.932Z,22.83
2018-09-10T04:14:32.059Z,22.81
2018-09-10T04:15:04.150Z,22.80
2018-09-10T04:15:36.362Z,22.78
2018-09-10T04:16:08.443Z,22.78
2018-09-10T04:16:40.549Z,22.83
2018-09-10T04:17:12.805Z,22.84
2018-09-10T04:17:44.905Z,22.84
2018-09-10T04:18:16.979Z,22.85
2018-09-10T04:18:49.081Z,22.83
2018-09-10T04:19:21.274Z,22.83
2018-09-10T04:19:53.375Z,22.79
2018-09-10T04:20:25.529Z,22.77
2018-09-10T04:20:57.662Z,22.77
2018-09-10T04:21:29.750Z,22.76
2018-09-10T04:22:01.882Z,22.77
2018-09-10T04:22:33.994Z,22.77
2018-09-10T04:23:06.133Z,22.77
2018-09-10T04:23:38.280Z,22.77
2018-09-10T04:24:10.603Z,22.76
2018-09-10T04:24:42.978Z,22.76
2018-09-10T04:25:15.099Z,22.75
2018-09-10T04:25:47.365Z,22.76
2018-09-10T04:26:19.502Z,22.75
2018-09-10T04:26:51.661Z,22.80
2018-09-10T04:27:23.802Z,22.83
2018-09-10T04:27:56.096Z,22.87
2018-09-10T04:28:28.179Z,22.90
2018-09-10T04:29:00.471Z,22.93
2018-09-10T04:29:32.691Z,22.95
2018-09-10T04:30:04.760Z,22.95
2018-09-10T04:30:36.914Z,22.91
2018-09-10T04:31:09.022Z,22.90
2018-09-10T04:31:41.145Z,22.89
2018-09-10T04:32:13.271Z,22.88
2018-09-10T04:32:45.421Z,22.86
2018-09-10T04:33:17.564Z,22.86
2018-09-10T04:33:49.677Z,22.86
2018-09-10T04:34:21.759Z,22.83
2018-09-10T04:34:53.865Z,22.83
2018-09-10T04:35:25.967Z,22.82
2018-09-10T04:35:58.145Z,22.83
2018-09-10T04:36:30.246Z,22.83
2018-09-10T04:37:02.369Z,22.82
2018-09-10T04:37:34.514Z,22.84
2018-09-10T04:38:06.664Z,22.84
2018-09-10T04:38:38.799Z,22.84
2018-09-10T04:39:11.018Z,22.83
2018-09-10T04:39:43.233Z,22.81
2018-09-10T04:40:15.364Z,22.80
2018-09-10T04:40:47.698Z,22.79
2018-09-10T04:41:19.862Z,22.80
2018-09-10T04:41:52.180Z,22.79
2018-09-10T04:42:24.485Z,22.78
2018-09-10T04:42:56.556Z,22.77
2018-09-10T04:43:28.699Z,22.78
2018-09-10T04:44:00.890Z,22.79
2018-09-10T04:44:33.180Z,22.78
2018-09-10T04:45:05.407Z,22.78
2018-09-10T04:45:37.502Z,22.78
2018-09-10T04:46:09.670Z,22.80
2018-09-10T04:46:41.742Z,22.79
2018-09-10T04:47:13.872Z,22.78
2018-09-10T04:47:45.961Z,22.79
2018-09-10T04:48:18.320Z,22.78
2018-09-10T04:48:50.581Z,22.78
2018-09-10T04:49:22.711Z,22.76
2018-09-10T04:49:54.797Z,22.77
2018-09-10T04:50:26.919Z,22.79
2018-09-10T04:50:59.053Z,22.78
2018-09-10T04:51:31.251Z,22.79
2018-09-10T04:52:03.471Z,22.78
2018-09-10T04:52:35.649Z,22.77
2018-09-10T04:53:07.765Z,22.77
2018-09-10T04:53:40.006Z,22.76
2018-09-10T04:54:12.129Z,22.76
2018-09-10T04:54:44.258Z,22.77
2018-09-10T04:55:16.401Z,22.76
2018-09-10T04:55:48.697Z,22.78
2018-09-10T04:56:20.778Z,22.76
2018-09-10T04:56:52.957Z,22.77
2018-09-10T04:57:25.146Z,22.77
2018-09-10T04:57:57.259Z,22.76
2018-09-10T04:58:29.479Z,22.80
2018-09-10T04:59:01.614Z,22.78
2018-09-10T04:59:33.738Z,22.79
2018-09-10T05:00:05.892Z,22.77
2018-09-10T05:00:37.980Z,22.78
2018-09-10T05:01:10.323Z,22.76
2018-09-10T05:01:42.465Z,22.76
2018-09-10T05:02:14.869Z,22.74
2018-09-10T05:02:46.942Z,22.75
2018-09-10T05:03:19.061Z,22.77
2018-09-10T05:03:51.148Z,22.78
2018-09-10T05:04:23.287Z,22.77
2018-09-10T05:04:55.376Z,22.75
2018-09-10T05:05:27.690Z,22.75
2018-09-10T05:05:59.916Z,22.75
2018-09-10T05:06:32.057Z,22.75
2018-09-10T05:07:04.178Z,22.76
2018-09-10T05:07:36.309Z,22.76
2018-09-10T05:08:08.402Z,22.77
2018-09-10T05:08:40.547Z,22.78
2018-09-10T05:09:12.743Z,22.76
2018-09-10T05:09:44.926Z,22.78
2018-09-10T05:10:17.021Z,22.78
2018-09-10T05:10:49.184Z,22.78
2018-09-10T05:11:21.385Z,22.79
2018-09-10T05:11:53.535Z,22.78
2018-09-10T05:12:25.622Z,22.77
2018-09-10T05:12:57.753Z,22.78
2018-09-10T05:13:29.870Z,22.77
2018-09-10T05:14:02.092Z,22.76
2018-09-10T05:14:34.242Z,22.77
2018-09-10T05:15:06.417Z,22.75
2018-09-10T05:15:38.711Z,22.75
2018-09-10T05:16:10.829Z,22.76
2018-09-10T05:16:42.983Z,22.76
2018-09-10T05:17:15.136Z,22.75
2018-09-10T05:17:47.408Z,22.74
2018-09-10T05:18:19.525Z,22.74
2018-09-10T05:18:51.696Z,22.74
2018-09-10T05:19:23.865Z,22.75
2018-09-10T05:19:55.966Z,22.75
2018-09-10T05:20:28.095Z,22.75
2018-09-10T05:21:00.465Z,22.74
2018-09-10T05:21:32.578Z,22.75
2018-09-10T05:22:04.774Z,22.76
2018-09-10T05:22:37.062Z,22.76
2018-09-10T05:23:09.296Z,22.75
2018-09-10T05:23:41.506Z,22.75
2018-09-10T05:24:13.644Z,22.75
2018-09-10T05:24:45.799Z,22.76
2018-09-10T05:25:17.958Z,22.75
2018-09-10T05:25:50.052Z,22.74
2018-09-10T05:26:22.312Z,22.77
2018-09-10T05:26:54.418Z,22.76
2018-09-10T05:27:26.523Z,22.76
2018-09-10T05:27:58.682Z,22.77
2018-09-10T05:28:30.798Z,22.76
2018-09-10T05:29:03.013Z,22.76
2018-09-10T05:29:35.110Z,22.76
2018-09-10T05:30:07.233Z,22.76
2018-09-10T05:30:39.505Z,22.77
2018-09-10T05:31:11.785Z,22.74
2018-09-10T05:31:43.940Z,22.75
2018-09-10T05:32:16.046Z,22.75
2018-09-10T05:32:48.215Z,22.75
2018-09-10T05:33:20.583Z,22.74
2018-09-10T05:33:52.857Z,22.75
2018-09-10T05:34:25.030Z,22.76
2018-09-10T05:34:57.104Z,22.75
2018-09-10T05:35:29.243Z,22.76
2018-09-10T05:36:01.350Z,22.75
2018-09-10T05:36:33.469Z,22.78
2018-09-10T05:37:05.805Z,22.76
2018-09-10T05:37:38.059Z,22.79
2018-09-10T05:38:10.193Z,22.78
2018-09-10T05:38:42.329Z,22.77
2018-09-10T05:39:14.437Z,22.77
2018-09-10T05:39:46.536Z,22.82
2018-09-10T05:40:18.661Z,22.82
2018-09-10T05:40:50.802Z,22.80
2018-09-10T05:41:22.945Z,22.79
2018-09-10T05:41:55.187Z,22.79
2018-09-10T05:42:27.290Z,22.86
2018-09-10T05:42:59.403Z,22.89
2018-09-10T05:43:31.686Z,22.90
2018-09-10T05:44:03.930Z,22.89
2018-09-10T05:44:36.037Z,22.89
2018-09-10T05:45:08.151Z,22.87
2018-09-10T05:45:40.268Z,22.85
2018-09-10T05:46:12.409Z,22.85
2018-09-10T05:46:44.564Z,22.82
2018-09-10T05:47:16.733Z,22.80
2018-09-10T05:47:48.820Z,22.78
2018-09-10T05:48:20.911Z,22.76
2018-09-10T05:48:53.237Z,22.78
2018-09-10T05:49:25.390Z,22.76
2018-09-10T05:49:57.515Z,22.78
2018-09-10T05:50:29.684Z,22.79
2018-09-10T05:51:02.009Z,22.79
2018-09-10T05:51:34.138Z,22.77
2018-09-10T05:52:06.241Z,22.81
2018-09-10T05:52:38.412Z,22.79
2018-09-10T05:53:10.634Z,22.79
2018-09-10T05:53:42.705Z,22.79
2018-09-10T05:54:15.068Z,22.79
2018-09-10T05:54:47.319Z,22.78
2018-09-10T05:55:19.422Z,22.79
2018-09-10T05:55:51.635Z,22.78
2018-09-10T05:56:23.764Z,22.78
2018-09-10T05:56:55.971Z,22.77
2018-09-10T05:57:28.319Z,22.76
2018-09-10T05:58:00.419Z,22.79
2018-09-10T05:58:32.498Z,22.78
2018-09-10T05:59:04.689Z,22.78
2018-09-10T05:59:36.949Z,22.79
2018-09-10T06:00:09.219Z,22.80
2018-09-10T06:00:41.362Z,22.81
2018-09-10T06:01:13.451Z,22.81
2018-09-10T06:01:45.657Z,22.79
2018-09-10T06:02:17.790Z,22.82
2018-09-10T06:02:50.013Z,22.82
2018-09-10T06:03:22.234Z,22.82
2018-09-10T06:03:54.461Z,22.82
2018-09-10T06:04:26.600Z,22.82
2018-09-10T06:04:58.689Z,22.80
2018-09-10T06:05:30.797Z,22.79
2018-09-10T06:06:02.936Z,22.83
2018-09-10T06:06:35.069Z,22.81
2018-09-10T06:07:07.317Z,22.81
2018-09-10T06:07:39.424Z,22.84
2018-09-10T06:08:11.571Z,22.83
2018-09-10T06:08:43.904Z,22.83
2018-09-10T06:09:15.975Z,22.84
2018-09-10T06:09:48.148Z,22.83
2018-09-10T06:10:20.272Z,22.83
2018-09-10T06:10:52.436Z,22.83
2018-09-10T06:11:24.682Z,22.84
2018-09-10T06:11:56.785Z,22.85
2018-09-10T06:12:28.905Z,22.85
2018-09-10T06:13:01.057Z,22.85
2018-09-10T06:13:33.175Z,22.86
2018-09-10T06:14:05.351Z,22.85
2018-09-10T06:14:37.525Z,22.87
2018-09-10T06:15:09.622Z,22.87
2018-09-10T06:15:41.741Z,22.86
2018-09-10T06:16:13.875Z,22.87
2018-09-10T06:16:46.219Z,22.88
2018-09-10T06:17:18.329Z,22.87
2018-09-10T06:17:50.434Z,22.87
2018-09-10T06:18:22.678Z,22.87
2018-09-10T06:18:54.764Z,22.89
2018-09-10T06:19:26.936Z,22.86
2018-09-10T06:19:59.093Z,22.87
2018-09-10T06:20:31.310Z,22.87
2018-09-10T06:21:03.443Z,22.88
2018-09-10T06:21:35.538Z,22.87
2018-09-10T06:22:07.708Z,22.89
2018-09-10T06:22:39.861Z,22.90
2018-09-10T06:23:12.002Z,22.90
2018-09-10T06:23:44.217Z,22.89
2018-09-10T06:24:16.341Z,22.89
2018-09-10T06:24:48.698Z,22.89
2018-09-10T06:25:20.953Z,22.88
2018-09-10T06:25:53.122Z,22.90
2018-09-10T06:26:25.315Z,22.89
2018-09-10T06:26:57.732Z,22.91
2018-09-10T06:27:29.856Z,22.89
2018-09-10T06:28:02.020Z,22.91
2018-09-10T06:28:34.162Z,22.91
2018-09-10T06:29:06.383Z,22.93
2018-09-10T06:29:38.516Z,22.92
2018-09-10T06:30:10.837Z,22.90
2018-09-10T06:30:43.017Z,22.92
2018-09-10T06:31:15.126Z,22.93
2018-09-10T06:31:47.229Z,22.92
2018-09-10T06:32:19.410Z,22.92
2018-09-10T06:32:51.739Z,22.92
2018-09-10T06:33:23.898Z,22.92
2018-09-10T06:33:56.054Z,22.91
2018-09-10T06:34:28.297Z,22.91
2018-09-10T06:35:00.463Z,22.90
2018-09-10T06:35:32.782Z,22.92
2018-09-10T06:36:04.925Z,22.92
2018-09-10T06:36:37.021Z,22.92
2018-09-10T06:37:09.393Z,22.93
2018-09-10T06:37:41.502Z,22.93
2018-09-10T06:38:13.637Z,22.93
2018-09-10T06:38:45.755Z,22.93
2018-09-10T06:39:17.925Z,22.94
2018-09-10T06:39:50.137Z,22.93
2018-09-10T06:40:22.394Z,22.95
2018-09-10T06:40:54.540Z,22.95
2018-09-10T06:41:26.643Z,22.95
2018-09-10T06:41:58.894Z,22.95
2018-09-10T06:42:31.160Z,22.95
2018-09-10T06:43:03.307Z,22.94
2018-09-10T06:43:35.697Z,22.94
2018-09-10T06:44:07.964Z,22.94
2018-09-10T06:44:40.245Z,22.94
2018-09-10T06:45:12.404Z,22.95
2018-09-10T06:45:44.512Z,22.95
2018-09-10T06:46:16.633Z,22.95
2018-09-10T06:46:48.726Z,22.94
2018-09-10T06:47:20.863Z,22.95
2018-09-10T06:47:53.031Z,22.95
2018-09-10T06:48:25.152Z,22.96
2018-09-10T06:48:57.582Z,22.94
2018-09-10T06:49:29.789Z,22.95
2018-09-10T06:50:01.945Z,22.95
2018-09-10T06:50:34.172Z,22.95
2018-09-10T06:51:06.394Z,22.95
2018-09-10T06:51:38.525Z,22.94
2018-09-10T06:52:10.654Z,22.95
2018-09-10T06:52:42.819Z,22.95
2018-09-10T06:53:14.975Z,22.96
2018-09-10T06:53:47.090Z,22.96
2018-09-10T06:54:19.219Z,22.98